Time;durP1;ratioP1;P1;durP2;ratioP2;P2;SDS_P1;SDS_P2;PMS_P1;PMS_P2;Temp;Humidity;BMP_temperature;BMP_pressure;BME280_temperature;BME280_humidity;BME280_pressure;Samples;Min_cycle;Max_cycle;Signal;HPM_P1;HPM_P2
2022/07/31 00:02:15;;;;;;;4.60;2.80;;;20.90;92.00;;;;;;5105976;28;20464;-66
2022/07/31 00:04:40;;;;;;;5.78;4.38;;;21.40;92.20;;;;;;5127741;27;20030;-66
2022/07/31 00:07:06;;;;;;;5.25;3.67;;;20.50;92.10;;;;;;5131813;27;20015;-66
2022/07/31 00:09:31;;;;;;;4.22;3.03;;;20.80;92.30;;;;;;5130702;27;20031;-66
2022/07/31 00:11:57;;;;;;;7.20;3.97;;;20.70;92.40;;;;;;5131281;27;20027;-66
2022/07/31 00:14:23;;;;;;;8.00;3.53;;;20.70;92.50;;;;;;5128576;27;20383;-67
2022/07/31 00:16:48;;;;;;;5.93;3.58;;;20.60;92.60;;;;;;5130554;27;20026;-66
2022/07/31 00:19:14;;;;;;;4.50;3.80;;;20.60;92.60;;;;;;5131178;27;20027;-66
2022/07/31 00:21:39;;;;;;;5.43;3.78;;;20.60;92.70;;;;;;5131287;27;20117;-66
2022/07/31 00:24:05;;;;;;;6.07;4.72;;;20.60;92.90;;;;;;5131779;27;20027;-66
2022/07/31 00:26:30;;;;;;;5.28;3.50;;;20.50;92.90;;;;;;5130763;27;20035;-67
2022/07/31 00:28:56;;;;;;;3.58;3.25;;;20.50;92.90;;;;;;5131506;27;20042;-67
2022/07/31 00:31:23;;;;;;;5.15;3.65;;;20.40;93.00;;;;;;5131162;27;20388;-66
2022/07/31 00:33:48;;;;;;;4.85;2.63;;;20.50;93.00;;;;;;5131654;27;20031;-66
2022/07/31 00:36:14;;;;;;;2.97;2.50;;;20.60;93.00;;;;;;5131013;27;20046;-66
2022/07/31 00:38:39;;;;;;;3.40;3.10;;;20.50;93.00;;;;;;5131282;27;20023;-66
2022/07/31 00:41:05;;;;;;;3.88;2.70;;;20.50;93.00;;;;;;5130922;27;20484;-66
2022/07/31 00:43:30;;;;;;;3.22;2.92;;;20.50;93.10;;;;;;5131084;27;20375;-66
2022/07/31 00:45:56;;;;;;;3.65;2.33;;;20.50;93.10;;;;;;5131355;27;20112;-66
2022/07/31 00:48:22;;;;;;;4.80;2.67;;;22.90;93.70;;;;;;5131251;27;20774;-66
2022/07/31 00:50:48;;;;;;;4.18;2.65;;;20.50;93.20;;;;;;5130865;27;20027;-67
2022/07/31 00:53:13;;;;;;;3.10;2.67;;;20.50;93.20;;;;;;5130994;27;20043;-66
2022/07/31 00:55:39;;;;;;;3.67;3.00;;;20.50;93.30;;;;;;5130861;27;20023;-66
2022/07/31 00:58:04;;;;;;;4.57;3.03;;;20.90;93.40;;;;;;5131187;27;20015;-67
2022/07/31 01:00:30;;;;;;;3.95;3.15;;;20.40;93.30;;;;;;5130682;27;20070;-66
2022/07/31 01:02:56;;;;;;;5.28;3.50;;;20.50;93.40;;;;;;5131117;27;20026;-67
2022/07/31 01:05:21;;;;;;;5.38;3.67;;;21.20;93.70;;;;;;5130825;27;20023;-66
2022/07/31 01:07:48;;;;;;;4.68;3.92;;;20.40;93.70;;;;;;5130958;27;20023;-66
2022/07/31 01:10:35;;;;;;;5.05;4.18;;;21.30;94.00;;;;;;5111176;28;20027;-67
2022/07/31 01:13:07;;;;;;;7.20;4.30;;;20.20;93.50;;;;;;5131055;27;20015;-66
2022/07/31 01:15:35;;;;;;;4.68;4.28;;;20.20;94.40;;;;;;5130685;27;20103;-67
2022/07/31 01:18:01;;;;;;;4.13;3.67;;;;;;;;;;5112494;27;20023;-66
2022/07/31 01:20:27;;;;;;;5.78;4.30;;;20.10;93.40;;;;;;5130350;27;20054;-67
2022/07/31 01:23:27;;;;;;;4.65;4.18;;;20.00;94.80;;;;;;5130877;28;20023;-66
2022/07/31 01:26:04;;;;;;;6.60;4.30;;;20.10;94.60;;;;;;5130462;28;20019;-67
2022/07/31 01:28:49;;;;;;;6.38;4.05;;;19.80;95.30;;;;;;5130293;28;20377;-66
2022/07/31 01:31:24;;;;;;;6.88;3.70;;;19.90;94.80;;;;;;5130617;28;20221;-66
2022/07/31 01:34:11;;;;;;;6.18;4.22;;;19.80;95.70;;;;;;5130894;28;20371;-67
2022/07/31 01:36:45;;;;;;;5.75;4.30;;;19.80;95.00;;;;;;5130535;28;20019;-67
2022/07/31 01:39:11;;;;;;;5.45;3.58;;;19.70;95.90;;;;;;5130099;28;20486;-67
2022/07/31 01:41:40;;;;;;;5.18;4.57;;;19.60;95.70;;;;;;5130702;28;20118;-66
2022/07/31 01:44:07;;;;;;;5.18;3.35;;;19.80;96.10;;;;;;5130845;28;20486;-69
2022/07/31 01:46:34;;;;;;;5.55;4.60;;;19.70;96.00;;;;;;5111716;28;20031;-66
2022/07/31 01:49:01;;;;;;;5.18;4.50;;;19.60;96.20;;;;;;5130838;28;20024;-66
2022/07/31 01:51:29;;;;;;;7.28;4.25;;;19.70;96.20;;;;;;5130106;28;20019;-67
2022/07/31 01:53:55;;;;;;;5.75;3.80;;;19.60;96.30;;;;;;5130545;28;20015;-66
2022/07/31 01:56:22;;;;;;;5.30;4.35;;;19.60;96.20;;;;;;5130200;28;20092;-67
2022/07/31 01:58:49;;;;;;;4.43;4.05;;;19.60;96.40;;;;;;5130617;28;20019;-66
2022/07/31 02:01:16;;;;;;;6.60;4.57;;;19.60;96.40;;;;;;5130179;27;20039;-67
2022/07/31 02:03:43;;;;;;;5.53;4.20;;;19.60;96.30;;;;;;5133672;27;20011;-66
2022/07/31 02:06:10;;;;;;;4.78;4.20;;;19.60;96.40;;;;;;5134618;27;20023;-66
2022/07/31 02:08:37;;;;;;;5.15;4.28;;;19.70;96.40;;;;;;5133716;27;20033;-66
2022/07/31 02:11:03;;;;;;;6.35;4.75;;;19.60;99.90;;;;;;5134512;27;20506;-66
2022/07/31 02:13:30;;;;;;;8.07;5.00;;;19.60;96.40;;;;;;5134254;27;20023;-66
2022/07/31 02:15:58;;;;;;;6.22;3.95;;;19.60;96.60;;;;;;5134496;27;20019;-66
2022/07/31 02:18:24;;;;;;;4.88;4.10;;;19.50;96.50;;;;;;5133752;27;20027;-66
2022/07/31 02:20:50;;;;;;;4.00;3.60;;;19.60;96.40;;;;;;5115529;27;20047;-67
2022/07/31 02:23:16;;;;;;;5.50;3.92;;;;;;;;;;5133582;27;20023;-66
2022/07/31 02:25:43;;;;;;;5.95;4.18;;;19.70;95.40;;;;;;5134095;27;20098;-66
2022/07/31 02:28:14;;;;;;;4.22;3.80;;;19.70;96.40;;;;;;5133919;27;20059;-66
2022/07/31 02:30:43;;;;;;;5.43;4.13;;;19.70;96.60;;;;;;5133695;27;20023;-66
2022/07/31 02:33:12;;;;;;;5.97;4.00;;;19.70;96.70;;;;;;5133886;27;20033;-66
2022/07/31 02:35:39;;;;;;;4.85;3.88;;;19.70;96.80;;;;;;5133799;27;20027;-66
2022/07/31 02:38:06;;;;;;;3.80;3.50;;;19.60;96.70;;;;;;5133272;27;20086;-66
2022/07/31 02:40:32;;;;;;;4.55;3.40;;;19.80;96.60;;;;;;5133475;27;20110;-66
2022/07/31 02:42:57;;;;;;;10.07;3.95;;;19.70;96.80;;;;;;5133724;27;20095;-66
2022/07/31 02:45:23;;;;;;;5.20;3.95;;;19.70;96.70;;;;;;5133432;27;20123;-65
2022/07/31 02:47:49;;;;;;;5.22;4.32;;;19.70;96.80;;;;;;5133749;27;20030;-66
2022/07/31 02:50:16;;;;;;;4.50;3.97;;;19.80;96.90;;;;;;5133522;27;20068;-66
2022/07/31 02:52:42;;;;;;;6.43;3.67;;;20.50;97.30;;;;;;5133001;27;20071;-66
2022/07/31 02:55:09;;;;;;;3.67;3.28;;;19.70;97.20;;;;;;5133645;27;20019;-66
2022/07/31 02:57:35;;;;;;;5.38;4.45;;;19.60;97.20;;;;;;5133453;27;20059;-67
2022/07/31 03:00:00;;;;;;;5.63;3.80;;;19.70;97.30;;;;;;5133568;27;20065;-66
2022/07/31 03:02:26;;;;;;;6.10;4.10;;;19.60;97.40;;;;;;5133067;27;20019;-67
2022/07/31 03:04:52;;;;;;;3.85;3.50;;;19.60;97.50;;;;;;5133239;27;20019;-66
2022/07/31 03:07:17;;;;;;;4.50;3.67;;;19.60;97.50;;;;;;5132608;27;20098;-66
2022/07/31 03:09:43;;;;;;;4.63;3.80;;;19.70;97.70;;;;;;5132884;27;20079;-66
2022/07/31 03:12:08;;;;;;;7.22;4.30;;;19.60;97.70;;;;;;5133389;27;20046;-66
2022/07/31 03:14:35;;;;;;;5.55;4.07;;;19.70;97.90;;;;;;5132420;27;20027;-66
2022/07/31 03:17:02;;;;;;;3.95;3.65;;;19.50;97.80;;;;;;5133356;27;20035;-66
2022/07/31 03:19:28;;;;;;;5.22;4.28;;;19.70;98.10;;;;;;5132627;27;20058;-66
2022/07/31 03:21:55;;;;;;;6.72;4.47;;;19.60;98.00;;;;;;5132542;27;20027;-66
2022/07/31 03:24:21;;;;;;;5.72;5.22;;;19.60;98.10;;;;;;5132846;27;20019;-66
2022/07/31 03:26:46;;;;;;;6.13;4.47;;;19.60;98.20;;;;;;5132742;27;20111;-66
2022/07/31 03:29:12;;;;;;;6.22;5.63;;;19.50;98.10;;;;;;5128699;27;20610;-66
2022/07/31 03:31:38;;;;;;;5.60;5.03;;;19.60;98.30;;;;;;5124763;27;20031;-66
2022/07/31 03:34:03;;;;;;;7.75;5.80;;;19.60;98.20;;;;;;5132825;27;20441;-66
2022/07/31 03:36:30;;;;;;;6.43;4.82;;;19.50;98.30;;;;;;5131934;27;20122;-67
2022/07/31 03:38:56;;;;;;;5.60;4.55;;;19.60;98.40;;;;;;5114459;27;20479;-66
2022/07/31 03:41:22;;;;;;;7.10;4.95;;;19.50;98.40;;;;;;5132196;27;20053;-67
2022/07/31 03:43:49;;;;;;;6.90;5.82;;;19.50;98.50;;;;;;5132444;27;20023;-66
2022/07/31 03:46:18;;;;;;;7.25;5.80;;;19.50;98.70;;;;;;5132307;27;20027;-67
2022/07/31 03:48:44;;;;;;;6.55;5.95;;;19.40;98.70;;;;;;5132383;27;20028;-66
2022/07/31 03:51:10;;;;;;;6.18;5.65;;;19.40;98.50;;;;;;5131761;27;20126;-67
2022/07/31 03:53:36;;;;;;;7.22;6.38;;;19.40;98.60;;;;;;5132351;27;20064;-67
2022/07/31 03:56:04;;;;;;;8.95;8.13;;;19.50;98.60;;;;;;5132454;27;20031;-67
2022/07/31 03:58:29;;;;;;;8.13;7.25;;;19.40;98.60;;;;;;5131595;27;20488;-66
2022/07/31 04:00:55;;;;;;;8.50;7.70;;;19.50;98.60;;;;;;5132434;27;20479;-66
2022/07/31 04:03:21;;;;;;;9.52;8.55;;;19.50;98.50;;;;;;5131904;27;20106;-66
2022/07/31 04:05:46;;;;;;;8.75;7.90;;;19.40;98.70;;;;;;5131944;27;20110;-67
2022/07/31 04:08:14;;;;;;;10.25;9.35;;;19.60;98.50;;;;;;5131738;27;20495;-69
2022/07/31 04:10:40;;;;;;;9.27;8.38;;;19.40;98.50;;;;;;5132044;27;20026;-66
2022/07/31 04:13:05;;;;;;;9.48;8.55;;;19.60;98.60;;;;;;5131981;27;20031;-66
2022/07/31 04:15:32;;;;;;;10.05;9.07;;;19.60;98.60;;;;;;5117183;27;20024;-67
2022/07/31 04:17:57;;;;;;;11.40;8.90;;;19.40;98.70;;;;;;5131634;27;20027;-66
2022/07/31 04:20:23;;;;;;;11.95;9.70;;;19.50;98.50;;;;;;5131184;27;20057;-67
2022/07/31 04:22:49;;;;;;;10.30;9.38;;;19.50;98.50;;;;;;5131597;27;20031;-66
2022/07/31 04:25:15;;;;;;;11.23;10.20;;;19.40;98.60;;;;;;5130711;27;20427;-66
2022/07/31 04:27:41;;;;;;;11.15;9.85;;;19.50;98.60;;;;;;5131431;27;20095;-66
2022/07/31 04:30:07;;;;;;;9.63;8.82;;;19.40;98.50;;;;;;5131657;27;20031;-66
2022/07/31 04:32:33;;;;;;;10.00;9.10;;;19.50;98.40;;;;;;5130649;27;20070;-67
2022/07/31 04:34:59;;;;;;;17.75;10.10;;;19.40;98.60;;;;;;5131846;27;20022;-67
2022/07/31 04:37:24;;;;;;;10.80;8.90;;;19.50;98.50;;;;;;5131018;27;20031;-67
2022/07/31 04:39:50;;;;;;;11.25;10.25;;;19.40;98.50;;;;;;5112998;27;20421;-67
2022/07/31 04:42:15;;;;;;;10.93;8.82;;;19.50;98.50;;;;;;5131046;27;20030;-69
2022/07/31 04:44:41;;;;;;;10.40;9.10;;;19.40;98.50;;;;;;5112504;27;20022;-68
2022/07/31 04:47:07;;;;;;;13.05;9.60;;;19.40;98.60;;;;;;5131046;27;20027;-68
2022/07/31 04:49:33;;;;;;;11.27;9.48;;;19.40;98.80;;;;;;5131100;27;20020;-67
2022/07/31 04:51:59;;;;;;;9.32;7.30;;;19.40;98.70;;;;;;5131430;27;20487;-66
2022/07/31 04:54:25;;;;;;;9.80;8.77;;;19.50;98.80;;;;;;5130846;27;20402;-67
2022/07/31 04:56:51;;;;;;;9.52;8.55;;;19.60;98.70;;;;;;5131077;27;20145;-67
2022/07/31 04:59:22;;;;;;;12.93;8.13;;;19.60;98.80;;;;;;5130983;27;20029;-67
2022/07/31 05:01:48;;;;;;;10.27;7.45;;;20.40;99.10;;;;;;5130216;27;20113;-67
2022/07/31 05:04:14;;;;;;;8.23;7.40;;;19.80;98.90;;;;;;5130662;27;20028;-66
2022/07/31 05:06:47;;;;;;;9.60;8.70;;;19.60;98.90;;;;;;5111005;27;20033;-67
2022/07/31 05:09:16;;;;;;;12.02;7.32;;;19.70;98.30;;;;;;5130488;27;20023;-67
2022/07/31 05:11:41;;;;;;;9.50;8.05;;;19.70;99.20;;;;;;5130182;27;20091;-67
2022/07/31 05:14:08;;;;;;;8.07;7.28;;;19.60;98.90;;;;;;5125481;27;20455;-67
2022/07/31 05:16:35;;;;;;;7.70;6.97;;;19.70;99.00;;;;;;5129473;27;20084;-67
2022/07/31 05:19:02;;;;;;;10.63;8.10;;;21.10;99.30;;;;;;5130505;27;20023;-66
2022/07/31 05:21:30;;;;;;;10.07;9.07;;;19.90;99.00;;;;;;5130010;27;20058;-66
2022/07/31 05:23:58;;;;;;;14.48;8.90;;;20.00;98.90;;;;;;5128261;28;20033;-67
2022/07/31 05:26:25;;;;;;;10.82;8.30;;;20.00;98.90;;;;;;5129940;28;20087;-67
2022/07/31 05:28:52;;;;;;;11.77;8.23;;;20.10;98.80;;;;;;5130588;28;20024;-66
2022/07/31 05:31:19;;;;;;;11.60;9.00;;;20.20;98.90;;;;;;5130052;28;20072;-66
2022/07/31 05:33:46;;;;;;;11.15;10.05;;;20.40;98.80;;;;;;5130673;28;20356;-66
2022/07/31 05:36:12;;;;;;;11.30;9.35;;;20.40;98.70;;;;;;5131592;27;20438;-66
2022/07/31 05:38:38;;;;;;;15.57;11.75;;;20.40;98.50;;;;;;5134978;27;20051;-67
2022/07/31 05:41:04;;;;;;;10.98;9.88;;;21.20;98.50;;;;;;5135121;27;20079;-66
2022/07/31 05:43:29;;;;;;;13.90;12.70;;;20.70;98.30;;;;;;5134472;27;20031;-66
2022/07/31 05:45:55;;;;;;;14.02;11.90;;;21.20;98.40;;;;;;5134487;27;20538;-67
2022/07/31 05:48:21;;;;;;;14.95;12.65;;;20.70;98.30;;;;;;5134661;27;20023;-67
2022/07/31 05:50:48;;;;;;;12.05;10.88;;;20.80;98.40;;;;;;5134547;27;20479;-67
2022/07/31 05:53:14;;;;;;;15.85;12.50;;;21.30;98.60;;;;;;5134396;27;20015;-67
2022/07/31 05:55:40;;;;;;;13.50;12.20;;;20.70;98.70;;;;;;5134478;27;20015;-67
2022/07/31 05:58:06;;;;;;;14.23;12.02;;;20.60;98.30;;;;;;5134401;27;20176;-67
2022/07/31 06:00:32;;;;;;;14.15;12.00;;;20.70;98.30;;;;;;5133772;27;20106;-67
2022/07/31 06:03:01;;;;;;;16.08;12.70;;;22.00;98.70;;;;;;5134569;27;20023;-67
2022/07/31 06:05:28;;;;;;;12.98;11.60;;;20.50;98.30;;;;;;5134236;27;20459;-67
2022/07/31 06:07:54;;;;;;;15.63;12.38;;;21.40;98.70;;;;;;5134561;27;20052;-67
2022/07/31 06:10:21;;;;;;;13.52;11.88;;;20.50;98.50;;;;;;5134192;27;20387;-67
2022/07/31 06:12:47;;;;;;;13.30;11.82;;;20.40;98.60;;;;;;5134338;27;20286;-66
2022/07/31 06:15:12;;;;;;;13.50;12.15;;;20.50;98.50;;;;;;5133573;27;20487;-67
2022/07/31 06:17:39;;;;;;;14.93;11.77;;;20.30;98.40;;;;;;5134284;27;20046;-67
2022/07/31 06:20:06;;;;;;;14.18;12.70;;;20.40;98.70;;;;;;5133831;27;20047;-67
2022/07/31 06:22:31;;;;;;;14.13;11.70;;;20.40;98.30;;;;;;5133841;27;20023;-67
2022/07/31 06:24:57;;;;;;;13.52;12.23;;;20.40;98.50;;;;;;5134395;27;20094;-66
2022/07/31 06:27:22;;;;;;;14.00;12.70;;;20.30;98.50;;;;;;5133681;27;20019;-66
2022/07/31 06:29:48;;;;;;;13.73;12.07;;;20.40;98.60;;;;;;5115227;27;20055;-67
2022/07/31 06:32:14;;;;;;;14.25;12.95;;;20.40;98.70;;;;;;5133796;27;20042;-67
2022/07/31 06:34:40;;;;;;;13.93;12.38;;;20.40;98.80;;;;;;5133553;27;20442;-67
2022/07/31 06:37:06;;;;;;;13.05;11.38;;;20.50;98.80;;;;;;5134013;27;20025;-68
2022/07/31 06:39:32;;;;;;;18.73;14.13;;;20.10;98.50;;;;;;5133198;27;20046;-66
2022/07/31 06:41:58;;;;;;;16.05;12.82;;;20.60;98.60;;;;;;5133787;27;20066;-66
2022/07/31 06:44:23;;;;;;;13.80;12.60;;;20.50;98.60;;;;;;5132848;27;20167;-67
2022/07/31 06:46:50;;;;;;;14.68;13.18;;;20.60;98.50;;;;;;5133763;27;20360;-67
2022/07/31 06:49:16;;;;;;;13.77;12.48;;;20.60;98.50;;;;;;5132706;27;20092;-67
2022/07/31 06:51:42;;;;;;;15.20;13.77;;;21.40;98.60;;;;;;5133417;27;20463;-67
2022/07/31 06:54:09;;;;;;;14.88;13.45;;;20.70;98.40;;;;;;5133614;27;20038;-66
2022/07/31 06:56:35;;;;;;;16.95;14.77;;;21.00;98.50;;;;;;5133364;27;20265;-67
2022/07/31 06:59:02;;;;;;;16.77;15.07;;;20.80;98.30;;;;;;5133177;27;20050;-68
2022/07/31 07:01:28;;;;;;;16.70;14.40;;;20.80;98.40;;;;;;5132838;27;20478;-68
2022/07/31 07:03:54;;;;;;;16.45;14.82;;;20.80;98.30;;;;;;5133629;27;20024;-68
2022/07/31 07:06:20;;;;;;;16.90;14.75;;;20.90;98.30;;;;;;5133201;27;20583;-68
2022/07/31 07:08:46;;;;;;;15.52;14.02;;;;;;;;;;5133105;27;20023;-67
2022/07/31 07:11:12;;;;;;;14.25;12.82;;;20.90;96.90;;;;;;5133134;27;20090;-68
2022/07/31 07:13:38;;;;;;;16.83;15.20;;;20.90;98.00;;;;;;5132790;27;20048;-67
2022/07/31 07:16:03;;;;;;;15.48;13.82;;;21.00;97.90;;;;;;5133203;27;20033;-68
2022/07/31 07:18:29;;;;;;;18.30;15.07;;;;;;;;;;5132484;27;20038;-67
2022/07/31 07:20:55;;;;;;;15.88;14.38;;;21.00;96.90;;;;;;5133116;27;20130;-68
2022/07/31 07:23:21;;;;;;;14.30;12.88;;;21.10;98.00;;;;;;5132807;27;20090;-68
2022/07/31 07:25:48;;;;;;;19.02;13.65;;;20.80;98.10;;;;;;5132916;27;20011;-67
2022/07/31 07:28:14;;;;;;;15.32;12.90;;;20.90;98.10;;;;;;5132249;27;20098;-67
2022/07/31 07:30:39;;;;;;;17.30;12.85;;;21.70;98.30;;;;;;5132439;27;20023;-68
2022/07/31 07:33:05;;;;;;;15.00;13.60;;;20.80;98.10;;;;;;5132931;27;20027;-68
2022/07/31 07:35:31;;;;;;;13.27;11.93;;;20.80;98.10;;;;;;5132560;27;20075;-68
2022/07/31 07:37:57;;;;;;;13.35;12.05;;;20.90;98.10;;;;;;5132706;27;20063;-68
2022/07/31 07:40:23;;;;;;;12.20;11.10;;;22.40;98.40;;;;;;5132405;27;20502;-68
2022/07/31 07:42:49;;;;;;;13.20;11.52;;;21.90;98.20;;;;;;5132007;27;20027;-68
2022/07/31 07:45:15;;;;;;;13.68;11.15;;;22.40;98.10;;;;;;5132331;27;20023;-69
2022/07/31 07:47:41;;;;;;;12.27;10.77;;;21.30;97.70;;;;;;5132177;27;20033;-68
2022/07/31 07:50:08;;;;;;;13.10;11.77;;;21.30;97.80;;;;;;5133121;27;20027;-68
2022/07/31 07:52:34;;;;;;;12.85;11.50;;;21.40;97.90;;;;;;5113668;27;20023;-68
2022/07/31 07:55:00;;;;;;;12.13;10.82;;;21.50;97.90;;;;;;5132426;27;20019;-68
2022/07/31 07:57:25;;;;;;;12.70;11.05;;;21.20;97.90;;;;;;5131758;27;20027;-68
2022/07/31 07:59:51;;;;;;;13.25;11.80;;;21.20;98.00;;;;;;5131013;27;20023;-68
2022/07/31 08:02:17;;;;;;;11.48;10.27;;;21.20;98.00;;;;;;5131876;27;20494;-69
2022/07/31 08:04:43;;;;;;;12.10;11.00;;;21.30;98.10;;;;;;5131938;27;20023;-69
2022/07/31 08:07:09;;;;;;;13.68;11.63;;;21.30;98.00;;;;;;5132364;27;20087;-68
2022/07/31 08:09:35;;;;;;;11.85;10.70;;;21.00;97.60;;;;;;5132074;27;20019;-69
2022/07/31 08:12:01;;;;;;;15.35;11.13;;;20.80;97.70;;;;;;5131578;27;20468;-69
2022/07/31 08:14:27;;;;;;;12.20;10.70;;;21.60;98.10;;;;;;5131705;27;20031;-69
2022/07/31 08:16:53;;;;;;;12.38;11.18;;;21.60;97.60;;;;;;5131668;27;20022;-68
2022/07/31 08:19:19;;;;;;;11.38;10.27;;;21.80;97.70;;;;;;5131574;27;20107;-68
2022/07/31 08:21:45;;;;;;;12.80;11.50;;;21.80;97.50;;;;;;5131604;27;20502;-68
2022/07/31 08:24:11;;;;;;;11.80;10.60;;;21.80;97.50;;;;;;5128328;27;20761;-68
2022/07/31 08:29:22;;;;;;;12.18;10.02;;;22.00;97.50;;;;;;5126967;27;20376;-69
2022/07/31 08:31:48;;;;;;;10.45;9.23;;;22.20;97.30;;;;;;5130238;27;20019;-68
2022/07/31 08:34:13;;;;;;;11.45;10.32;;;22.20;97.20;;;;;;5129954;27;20485;-68
2022/07/31 08:36:39;;;;;;;11.32;9.73;;;22.20;97.00;;;;;;5130788;27;20023;-69
2022/07/31 08:39:05;;;;;;;15.95;10.40;;;22.50;96.80;;;;;;5130402;27;20027;-68
2022/07/31 08:41:37;;;;;;;11.80;10.38;;;22.60;96.70;;;;;;5124999;27;20031;-68
2022/07/31 08:44:04;;;;;;;10.80;9.38;;;23.60;96.00;;;;;;5131171;27;20102;-68
2022/07/31 08:46:31;;;;;;;12.38;10.45;;;23.00;96.30;;;;;;5129891;27;20623;-68
2022/07/31 08:48:59;;;;;;;10.38;8.90;;;23.20;96.20;;;;;;5130206;27;20027;-68
2022/07/31 08:51:26;;;;;;;11.20;10.00;;;23.30;95.90;;;;;;5125191;27;20104;-68
2022/07/31 08:53:52;;;;;;;10.35;9.35;;;23.50;95.60;;;;;;5124177;27;20524;-69
2022/07/31 08:56:19;;;;;;;10.40;9.40;;;23.60;95.30;;;;;;5119124;27;20023;-69
2022/07/31 08:58:45;;;;;;;10.40;8.98;;;23.70;95.20;;;;;;5114256;27;20019;-68
2022/07/31 09:01:12;;;;;;;10.98;9.25;;;23.90;94.90;;;;;;5130481;27;20023;-69
2022/07/31 09:03:37;;;;;;;13.85;10.60;;;25.10;95.10;;;;;;5120236;27;20076;-69
2022/07/31 09:06:04;;;;;;;12.80;11.35;;;23.90;94.40;;;;;;5130761;27;20031;-68
2022/07/31 09:08:35;;;;;;;11.98;10.70;;;24.00;94.50;;;;;;5124978;27;20471;-68
2022/07/31 09:11:03;;;;;;;11.90;10.45;;;24.00;94.80;;;;;;5130396;27;20053;-68
2022/07/31 09:13:28;;;;;;;12.32;8.98;;;23.90;94.70;;;;;;5130245;27;20062;-69
2022/07/31 09:15:57;;;;;;;11.27;10.13;;;23.90;94.40;;;;;;5130727;27;20051;-69
2022/07/31 09:18:24;;;;;;;13.68;9.60;;;23.90;94.70;;;;;;5129886;27;20020;-69
2022/07/31 09:20:57;;;;;;;10.02;9.02;;;23.90;94.40;;;;;;5130473;27;20059;-69
2022/07/31 09:23:26;;;;;;;11.15;8.85;;;24.30;94.90;;;;;;5129699;27;20049;-69
2022/07/31 09:25:56;;;;;;;10.77;8.98;;;23.90;94.60;;;;;;5130596;28;20023;-68
2022/07/31 09:28:36;;;;;;;10.98;9.38;;;23.90;94.70;;;;;;5127894;28;20015;-68
2022/07/31 09:31:03;;;;;;;11.55;10.27;;;24.00;93.90;;;;;;5119109;28;20027;-68
2022/07/31 09:33:30;;;;;;;12.57;9.48;;;23.90;94.40;;;;;;5130317;28;20466;-68
2022/07/31 09:35:56;;;;;;;12.10;9.68;;;24.90;94.50;;;;;;5130600;28;20437;-68
2022/07/31 09:38:35;;;;;;;15.57;10.65;;;24.30;94.50;;;;;;5111022;28;20475;-68
2022/07/31 09:41:21;;;;;;;12.32;10.63;;;24.10;95.00;;;;;;5128274;28;20131;-68
2022/07/31 09:44:07;;;;;;;11.93;10.20;;;24.20;95.70;;;;;;5129501;28;20524;-68
2022/07/31 09:46:45;;;;;;;11.15;9.88;;;24.70;95.80;;;;;;5129817;28;20031;-68
2022/07/31 09:49:11;;;;;;;13.07;11.00;;;24.10;95.00;;;;;;5130299;28;20023;-68
2022/07/31 09:51:41;;;;;;;12.82;11.15;;;23.90;95.60;;;;;;5129965;28;20047;-68
2022/07/31 09:54:18;;;;;;;12.13;10.88;;;23.70;95.30;;;;;;5130626;28;20759;-68
2022/07/31 09:56:45;;;;;;;14.02;11.38;;;23.60;96.50;;;;;;5111793;28;20550;-68
2022/07/31 09:59:11;;;;;;;14.43;11.98;;;23.60;96.80;;;;;;5130248;28;20353;-68
2022/07/31 10:01:37;;;;;;;13.98;12.60;;;23.50;97.00;;;;;;5130451;28;20031;-68
2022/07/31 10:04:04;;;;;;;13.65;11.43;;;23.40;97.30;;;;;;5130411;28;20016;-69
2022/07/31 10:06:33;;;;;;;14.52;12.93;;;23.30;97.60;;;;;;5125776;28;20023;-68
2022/07/31 10:09:01;;;;;;;14.50;13.05;;;23.20;98.00;;;;;;5129899;28;20038;-68
2022/07/31 10:11:30;;;;;;;21.17;15.68;;;23.20;98.20;;;;;;5129883;28;20047;-68
2022/07/31 10:13:59;;;;;;;15.82;14.07;;;23.20;98.70;;;;;;5126132;28;20031;-69
2022/07/31 10:16:28;;;;;;;17.70;15.38;;;23.10;99.30;;;;;;5117288;28;20029;-68
2022/07/31 10:18:59;;;;;;;17.30;15.05;;;23.00;99.10;;;;;;5129815;28;20016;-68
2022/07/31 10:21:32;;;;;;;21.65;16.02;;;23.00;99.40;;;;;;5128953;28;20043;-68
2022/07/31 10:24:01;;;;;;;20.65;18.50;;;23.10;99.50;;;;;;5132313;27;20135;-69
2022/07/31 10:26:28;;;;;;;18.67;16.80;;;23.20;99.30;;;;;;5132418;27;20546;-68
2022/07/31 10:28:54;;;;;;;21.88;18.50;;;23.30;99.30;;;;;;5134002;27;20047;-67
2022/07/31 10:31:20;;;;;;;19.48;17.58;;;23.20;99.30;;;;;;5133258;27;20023;-68
2022/07/31 10:33:46;;;;;;;20.00;17.85;;;23.40;99.20;;;;;;5133782;27;20114;-68
2022/07/31 10:36:22;;;;;;;21.10;18.92;;;23.30;99.20;;;;;;5133109;27;20114;-70
2022/07/31 10:39:14;;;;;;;21.20;18.98;;;23.40;99.60;;;;;;5133888;27;20110;-69
2022/07/31 10:42:06;;;;;;;18.77;16.95;;;23.50;99.00;;;;;;5120557;27;20034;-69
2022/07/31 10:44:40;;;;;;;17.08;15.50;;;23.60;99.10;;;;;;5133012;27;20061;-69
2022/07/31 10:47:15;;;;;;;20.92;18.95;;;23.60;99.60;;;;;;5133962;27;20223;-69
2022/07/31 10:49:43;;;;;;;21.35;19.38;;;23.70;99.60;;;;;;5100052;27;20102;-69
2022/07/31 10:52:09;;;;;;;21.33;19.33;;;23.90;99.20;;;;;;5133684;27;20027;-68
2022/07/31 10:54:46;;;;;;;20.20;18.38;;;24.90;98.90;;;;;;5132860;27;20521;-69
2022/07/31 10:57:25;;;;;;;22.38;20.38;;;24.20;98.80;;;;;;5132794;27;20479;-69
2022/07/31 10:59:51;;;;;;;20.02;18.33;;;24.30;97.90;;;;;;5130881;27;20031;-69
2022/07/31 11:02:31;;;;;;;20.92;19.13;;;24.40;98.30;;;;;;5132531;27;20074;-68
2022/07/31 11:05:22;;;;;;;20.88;18.88;;;24.20;98.20;;;;;;5132957;27;20019;-69
2022/07/31 11:07:59;;;;;;;22.75;20.58;;;24.20;97.60;;;;;;5133152;27;20019;-69
2022/07/31 11:10:25;;;;;;;18.70;16.92;;;24.10;98.50;;;;;;5133185;27;20059;-69
2022/07/31 11:13:07;;;;;;;22.35;20.30;;;23.80;98.20;;;;;;5113467;27;20047;-69
2022/07/31 11:15:36;;;;;;;22.45;20.45;;;23.80;98.00;;;;;;5131692;27;20007;-68
2022/07/31 11:18:15;;;;;;;21.98;20.08;;;23.70;98.60;;;;;;5131652;27;20050;-69
2022/07/31 11:20:45;;;;;;;23.52;21.35;;;23.70;99.30;;;;;;5117767;27;20079;-69
2022/07/31 11:23:14;;;;;;;22.52;20.50;;;23.70;98.80;;;;;;5131766;27;20019;-70
2022/07/31 11:25:40;;;;;;;23.02;20.85;;;23.80;98.80;;;;;;5131410;27;20026;-70
2022/07/31 11:28:24;;;;;;;21.48;19.58;;;24.30;98.90;;;;;;5131478;27;20027;-70
2022/07/31 11:30:58;;;;;;;23.05;20.90;;;24.20;99.10;;;;;;5131551;27;20767;-70
2022/07/31 11:33:44;;;;;;;20.92;18.92;;;24.30;97.90;;;;;;5131040;27;20031;-70
2022/07/31 11:36:16;;;;;;;23.05;20.98;;;24.40;98.70;;;;;;5131164;27;20011;-69
2022/07/31 11:38:44;;;;;;;23.55;21.52;;;24.20;98.60;;;;;;5131193;27;20023;-69
2022/07/31 11:41:10;;;;;;;20.85;19.05;;;24.30;98.50;;;;;;5130991;27;20428;-69
2022/07/31 11:43:38;;;;;;;22.90;21.10;;;24.10;98.30;;;;;;5131009;27;20119;-70
2022/07/31 11:46:05;;;;;;;21.20;19.50;;;24.00;98.60;;;;;;5131377;27;20035;-71
2022/07/31 11:48:31;;;;;;;22.80;20.90;;;24.00;98.90;;;;;;5130626;27;20034;-69
2022/07/31 11:50:57;;;;;;;21.98;20.10;;;24.20;98.90;;;;;;5130998;27;20023;-70
2022/07/31 11:53:23;;;;;;;21.35;19.33;;;24.20;98.80;;;;;;5130875;27;20011;-70
2022/07/31 11:55:58;;;;;;;19.85;18.33;;;24.40;98.30;;;;;;5132032;27;20586;-70
2022/07/31 11:58:26;;;;;;;22.67;20.73;;;24.80;98.30;;;;;;5132054;27;20088;-70
2022/07/31 12:00:54;;;;;;;20.42;18.52;;;25.10;97.80;;;;;;5132208;27;20035;-70
2022/07/31 12:03:31;;;;;;;19.38;17.70;;;26.10;97.70;;;;;;5131465;27;20046;-70
2022/07/31 12:05:57;;;;;;;17.00;15.57;;;25.50;96.50;;;;;;5128746;27;20075;-69
2022/07/31 12:08:24;;;;;;;15.98;14.88;;;25.50;96.90;;;;;;5131675;27;20030;-69
2022/07/31 12:10:56;;;;;;;16.77;15.18;;;25.70;96.80;;;;;;5131557;27;20031;-70
2022/07/31 12:13:23;;;;;;;15.90;14.60;;;25.30;96.80;;;;;;5131673;27;20088;-70
2022/07/31 12:16:11;;;;;;;14.05;12.93;;;25.20;96.60;;;;;;5131474;27;20494;-69
2022/07/31 12:18:55;;;;;;;13.23;12.23;;;25.10;97.00;;;;;;5131314;27;20475;-69
2022/07/31 12:21:32;;;;;;;11.82;10.85;;;25.10;97.00;;;;;;5123270;27;20054;-69
2022/07/31 12:23:58;;;;;;;13.32;12.15;;;25.00;96.90;;;;;;5131812;27;20110;-69
2022/07/31 12:26:32;;;;;;;11.93;10.68;;;25.00;96.60;;;;;;5131457;27;20539;-69
2022/07/31 12:29:07;;;;;;;11.15;10.15;;;25.10;96.40;;;;;;5131479;27;20030;-69
2022/07/31 12:31:48;;;;;;;12.75;11.85;;;25.10;95.90;;;;;;5122892;27;20034;-69
2022/07/31 12:34:35;;;;;;;11.10;10.18;;;25.00;95.40;;;;;;5113052;27;20052;-69
2022/07/31 12:37:03;;;;;;;11.13;10.13;;;24.80;95.70;;;;;;5130886;27;20027;-69
2022/07/31 12:39:29;;;;;;;10.68;9.77;;;25.40;96.60;;;;;;5131429;27;20019;-69
2022/07/31 12:41:55;;;;;;;9.98;9.18;;;24.60;96.30;;;;;;5131478;27;20252;-70
2022/07/31 12:44:21;;;;;;;9.82;8.93;;;24.60;96.30;;;;;;5112785;27;20479;-70